Time;durP1;ratioP1;P1;durP2;ratioP2;P2;SDS_P1;SDS_P2;PMS_P1;PMS_P2;Temp;Humidity;BMP_temperature;BMP_pressure;BME280_temperature;BME280_humidity;BME280_pressure;Samples;Min_cycle;Max_cycle;Signal;HPM_P1;HPM_P2
2023/08/29 00:00:32;;;;;;;4.65;4.13;;;24.10;99.90;;;;;;6206591;28;89432;-67
2023/08/29 00:03:34;;;;;;;4.90;4.10;;;24.10;99.90;;;;;;6205671;28;89833;-67
2023/08/29 00:06:36;;;;;;;4.30;3.90;;;24.10;99.90;;;;;;6197827;28;89115;-67
2023/08/29 00:09:38;;;;;;;4.63;3.85;;;24.10;99.90;;;;;;6200430;28;89514;-67
2023/08/29 00:12:42;;;;;;;4.32;3.88;;;24.10;99.90;;;;;;6206353;28;88994;-67
2023/08/29 00:15:44;;;;;;;4.53;3.88;;;24.10;99.90;;;;;;6206938;28;89134;-67
2023/08/29 00:18:46;;;;;;;4.38;3.97;;;24.10;99.90;;;;;;6204110;28;88420;-67
2023/08/29 00:21:48;;;;;;;4.45;4.05;;;24.00;99.90;;;;;;6200992;28;87878;-67
2023/08/29 00:24:52;;;;;;;4.57;4.05;;;24.00;99.90;;;;;;6206400;28;89162;-67
2023/08/29 00:27:55;;;;;;;4.80;4.13;;;24.10;99.90;;;;;;6203454;28;89896;-67
2023/08/29 00:30:57;;;;;;;4.20;3.80;;;24.00;99.90;;;;;;6206380;28;87941;-67
2023/08/29 00:33:59;;;;;;;4.68;3.90;;;24.10;99.90;;;;;;6204973;28;89368;-67
2023/08/29 00:37:01;;;;;;;4.30;3.90;;;24.10;99.90;;;;;;6186709;28;89170;-67
2023/08/29 00:40:04;;;;;;;4.28;3.88;;;24.00;99.90;;;;;;6202396;28;88031;-67
2023/08/29 00:43:07;;;;;;;4.07;3.67;;;24.10;99.90;;;;;;6202207;28;89244;-67
2023/08/29 00:46:09;;;;;;;4.20;3.80;;;24.10;99.90;;;;;;6188430;28;89097;-67
2023/08/29 00:49:13;;;;;;;4.20;3.80;;;24.10;99.90;;;;;;6208875;28;88687;-67
2023/08/29 00:52:15;;;;;;;4.10;3.70;;;24.10;99.90;;;;;;6197524;28;89080;-67
2023/08/29 00:55:17;;;;;;;4.13;3.72;;;24.10;99.90;;;;;;6195866;28;89389;-67
2023/08/29 00:58:20;;;;;;;3.95;3.55;;;24.00;99.90;;;;;;6211373;28;90008;-67
2023/08/29 01:01:23;;;;;;;3.58;3.28;;;24.00;99.90;;;;;;6204239;28;88001;-67
2023/08/29 01:04:25;;;;;;;4.75;3.50;;;24.00;99.90;;;;;;6204293;28;89166;-67
2023/08/29 01:07:26;;;;;;;3.65;3.30;;;24.00;99.90;;;;;;6213374;28;87953;-67
2023/08/29 01:10:37;;;;;;;4.57;3.85;;;24.00;99.90;;;;;;6203431;28;89122;-67
2023/08/29 01:13:46;;;;;;;4.40;4.00;;;24.00;99.90;;;;;;6201943;28;89063;-67
2023/08/29 01:16:54;;;;;;;4.03;3.60;;;24.00;99.90;;;;;;6208061;28;89023;-67
2023/08/29 01:19:57;;;;;;;4.10;3.60;;;24.00;99.90;;;;;;6200175;28;88338;-67
2023/08/29 01:23:08;;;;;;;3.95;3.60;;;24.00;99.90;;;;;;6203396;28;89565;-67
2023/08/29 01:26:13;;;;;;;3.95;3.55;;;24.00;99.90;;;;;;6198110;28;88937;-67
2023/08/29 01:29:16;;;;;;;3.97;3.15;;;24.00;99.90;;;;;;6195655;28;90030;-66
2023/08/29 01:32:19;;;;;;;3.40;3.10;;;24.00;99.90;;;;;;6201649;28;90152;-67
2023/08/29 01:35:22;;;;;;;3.63;3.33;;;24.00;99.90;;;;;;6189428;28;89002;-67
2023/08/29 01:38:24;;;;;;;3.88;3.47;;;24.00;99.90;;;;;;6197217;28;89082;-67
2023/08/29 01:41:28;;;;;;;3.40;3.10;;;24.00;99.90;;;;;;6199614;28;88948;-67
2023/08/29 01:44:30;;;;;;;3.40;3.10;;;24.00;99.90;;;;;;6198644;28;89248;-67
2023/08/29 01:47:32;;;;;;;4.47;3.40;;;24.00;99.90;;;;;;6206700;28;89010;-67
2023/08/29 01:50:36;;;;;;;3.63;3.28;;;24.00;99.90;;;;;;6205556;28;88384;-67
2023/08/29 01:53:38;;;;;;;4.18;3.55;;;24.00;99.90;;;;;;6201321;28;88972;-67
2023/08/29 01:56:43;;;;;;;3.33;2.95;;;24.00;99.90;;;;;;6206309;28;88894;-67
2023/08/29 01:59:47;;;;;;;4.07;3.30;;;24.00;99.90;;;;;;6190588;28;89924;-67
2023/08/29 02:02:49;;;;;;;3.28;2.97;;;24.00;99.90;;;;;;6203184;28;89259;-67
2023/08/29 02:05:50;;;;;;;3.25;2.95;;;24.00;99.90;;;;;;6182679;28;89383;-67
2023/08/29 02:08:52;;;;;;;3.15;2.85;;;23.90;99.90;;;;;;6196593;28;88065;-67
2023/08/29 02:11:56;;;;;;;3.20;2.90;;;24.00;99.90;;;;;;6202369;28;89097;-67
2023/08/29 02:14:58;;;;;;;3.30;2.92;;;24.00;99.90;;;;;;6203606;28;89120;-67
2023/08/29 02:18:00;;;;;;;3.53;3.03;;;24.00;99.90;;;;;;6205267;28;89229;-67
2023/08/29 02:21:03;;;;;;;3.92;2.85;;;24.00;99.90;;;;;;6203354;28;88240;-67
2023/08/29 02:24:06;;;;;;;3.45;3.08;;;23.90;99.90;;;;;;6202937;28;89449;-67
2023/08/29 02:27:09;;;;;;;3.58;3.25;;;24.00;99.90;;;;;;6192895;28;89302;-67
2023/08/29 02:30:12;;;;;;;3.22;2.92;;;23.90;99.90;;;;;;6196643;28;89983;-66
2023/08/29 02:33:14;;;;;;;3.50;3.20;;;23.90;99.90;;;;;;6199225;28;89060;-67
2023/08/29 02:36:16;;;;;;;3.20;2.88;;;24.00;99.90;;;;;;6198209;28;87966;-67
2023/08/29 02:39:18;;;;;;;3.17;2.88;;;24.00;99.90;;;;;;6202319;28;88930;-67
2023/08/29 02:42:21;;;;;;;3.42;2.90;;;24.00;99.90;;;;;;6197905;28;89172;-67
2023/08/29 02:45:23;;;;;;;3.10;2.80;;;23.90;99.90;;;;;;6191084;28;88038;-67
2023/08/29 02:48:27;;;;;;;3.35;3.05;;;23.90;99.90;;;;;;6203601;28;88972;-67
2023/08/29 02:51:29;;;;;;;3.63;3.28;;;23.90;99.90;;;;;;6199012;28;88405;-67
2023/08/29 02:54:31;;;;;;;4.78;3.45;;;24.00;99.90;;;;;;6206113;28;89044;-67
2023/08/29 02:57:35;;;;;;;3.70;3.40;;;23.90;99.90;;;;;;6209020;28;88992;-67
2023/08/29 03:00:37;;;;;;;3.50;3.20;;;23.90;99.90;;;;;;6205773;28;90074;-67
2023/08/29 03:03:39;;;;;;;3.50;3.20;;;23.90;99.90;;;;;;6210873;28;89200;-67
2023/08/29 03:06:41;;;;;;;3.55;3.25;;;23.90;99.90;;;;;;6201458;28;89066;-67
2023/08/29 03:09:42;;;;;;;3.58;3.28;;;23.90;99.90;;;;;;6199943;28;88188;-67
2023/08/29 03:12:46;;;;;;;3.53;3.22;;;23.90;99.90;;;;;;6206655;28;89081;-67
2023/08/29 03:15:48;;;;;;;3.60;3.30;;;23.90;99.90;;;;;;6200277;28;88690;-67
2023/08/29 03:18:51;;;;;;;3.47;3.17;;;23.90;99.90;;;;;;6202143;28;89058;-67
2023/08/29 03:21:53;;;;;;;3.33;3.03;;;23.90;99.90;;;;;;6205985;28;87222;-67
2023/08/29 03:24:55;;;;;;;3.92;3.30;;;23.90;99.90;;;;;;6199950;28;89195;-67
2023/08/29 03:27:58;;;;;;;3.70;3.40;;;23.90;99.90;;;;;;6208099;28;88925;-67
2023/08/29 03:31:11;;;;;;;3.83;3.30;;;23.90;99.90;;;;;;6203717;28;89980;-67
2023/08/29 03:34:13;;;;;;;3.80;3.42;;;23.90;99.90;;;;;;6206989;28;89148;-67
2023/08/29 03:37:15;;;;;;;3.53;3.22;;;23.90;99.90;;;;;;6200178;28;89041;-67
2023/08/29 03:40:17;;;;;;;3.83;3.42;;;23.90;99.90;;;;;;6192546;28;88967;-67
2023/08/29 03:43:20;;;;;;;3.90;3.50;;;23.90;99.90;;;;;;6199321;28;88705;-67
2023/08/29 03:46:22;;;;;;;3.72;3.40;;;23.90;99.90;;;;;;6201974;28;88988;-67
2023/08/29 03:49:24;;;;;;;4.15;3.75;;;23.90;99.90;;;;;;6204212;28;89088;-67
2023/08/29 03:52:28;;;;;;;3.97;3.60;;;23.90;99.90;;;;;;6204893;28;88292;-67
2023/08/29 03:55:30;;;;;;;3.55;3.25;;;23.90;99.90;;;;;;6207725;28;89470;-67
2023/08/29 03:58:33;;;;;;;4.05;3.65;;;23.90;99.90;;;;;;6201259;28;89233;-67
2023/08/29 04:01:36;;;;;;;4.15;3.75;;;23.90;99.90;;;;;;6199170;28;89787;-67
2023/08/29 04:04:38;;;;;;;4.30;3.90;;;23.90;99.90;;;;;;6203123;28;87944;-67
2023/08/29 04:07:40;;;;;;;4.03;3.63;;;23.90;99.90;;;;;;6198175;28;89110;-67
2023/08/29 04:10:42;;;;;;;4.05;3.67;;;23.90;99.90;;;;;;6193689;28;89131;-67
2023/08/29 04:13:45;;;;;;;4.18;3.78;;;23.90;99.90;;;;;;6199935;28;89050;-66
2023/08/29 04:16:48;;;;;;;4.18;3.78;;;23.90;99.90;;;;;;6198265;28;89004;-66
2023/08/29 04:19:50;;;;;;;4.40;3.58;;;23.90;99.90;;;;;;6194438;28;89798;-67
2023/08/29 04:22:52;;;;;;;4.03;3.63;;;23.90;99.90;;;;;;6197634;28;88268;-67
2023/08/29 04:25:59;;;;;;;3.80;3.40;;;23.90;99.90;;;;;;6198561;28;89012;-67
2023/08/29 04:29:02;;;;;;;4.10;3.70;;;23.90;99.90;;;;;;6196369;28;89118;-67
2023/08/29 04:32:05;;;;;;;3.80;3.50;;;23.90;99.90;;;;;;6203413;28;90319;-67
2023/08/29 04:35:10;;;;;;;3.72;3.42;;;23.80;99.90;;;;;;6202197;28;89075;-67
2023/08/29 04:38:12;;;;;;;4.38;3.80;;;23.90;99.90;;;;;;6203711;28;89407;-67
2023/08/29 04:41:14;;;;;;;4.15;3.75;;;23.80;99.90;;;;;;6194736;28;89003;-67
2023/08/29 04:44:17;;;;;;;4.32;3.40;;;23.80;99.90;;;;;;6202741;28;89083;-67
2023/08/29 04:47:19;;;;;;;3.78;3.47;;;23.80;99.90;;;;;;6200424;28;89119;-67
2023/08/29 04:50:21;;;;;;;3.80;3.50;;;23.80;99.90;;;;;;6197810;28;89304;-67
2023/08/29 04:53:23;;;;;;;4.55;3.80;;;23.80;99.90;;;;;;6194013;28;87231;-67
2023/08/29 04:56:25;;;;;;;3.78;3.38;;;23.80;99.90;;;;;;6202392;28;89456;-67
2023/08/29 04:59:29;;;;;;;3.65;3.35;;;23.80;99.90;;;;;;6188209;28;89158;-67
2023/08/29 05:02:31;;;;;;;3.70;3.40;;;23.90;99.90;;;;;;6191759;28;90189;-67
2023/08/29 05:05:32;;;;;;;4.07;3.35;;;23.90;99.90;;;;;;6196551;28;89145;-67
2023/08/29 05:08:36;;;;;;;4.22;3.30;;;23.80;99.90;;;;;;6204158;28;89108;-67
2023/08/29 05:11:38;;;;;;;3.70;3.40;;;23.90;99.90;;;;;;6206198;28;89026;-67
2023/08/29 05:14:41;;;;;;;4.35;3.50;;;23.80;99.90;;;;;;6204538;28;88980;-66
2023/08/29 05:17:44;;;;;;;6.07;4.35;;;23.80;99.90;;;;;;6190177;28;87994;-68
2023/08/29 05:20:46;;;;;;;4.40;3.85;;;23.80;99.90;;;;;;6203651;28;88165;-71
2023/08/29 05:23:48;;;;;;;3.78;3.40;;;23.90;99.90;;;;;;6203584;28;88380;-67
2023/08/29 05:26:50;;;;;;;2.92;2.63;;;23.90;99.90;;;;;;6199069;28;88998;-68
2023/08/29 05:29:53;;;;;;;3.25;2.95;;;23.90;99.90;;;;;;6193174;28;88259;-68
2023/08/29 05:33:06;;;;;;;3.55;2.88;;;23.90;99.90;;;;;;6192185;28;88910;-68
2023/08/29 05:36:16;;;;;;;2.88;2.53;;;23.90;99.90;;;;;;6195994;28;89123;-67
2023/08/29 05:39:19;;;;;;;2.92;2.30;;;23.90;99.90;;;;;;6203303;28;89869;-67
2023/08/29 05:42:21;;;;;;;2.55;2.30;;;24.00;99.90;;;;;;6205631;28;89402;-67
2023/08/29 05:45:25;;;;;;;3.35;2.40;;;24.00;99.90;;;;;;6202560;28;89068;-67
2023/08/29 05:48:27;;;;;;;2.25;2.05;;;23.90;99.90;;;;;;6187169;28;89018;-67
2023/08/29 05:51:29;;;;;;;3.60;2.50;;;23.90;99.90;;;;;;6195285;28;89322;-67
2023/08/29 05:54:30;;;;;;;2.45;2.25;;;23.90;99.90;;;;;;6203568;28;88440;-67
2023/08/29 05:57:32;;;;;;;2.30;2.10;;;23.90;99.90;;;;;;6206532;28;89038;-67
2023/08/29 06:00:37;;;;;;;2.58;2.20;;;23.90;99.90;;;;;;6202941;28;88017;-67
2023/08/29 06:03:39;;;;;;;2.17;1.98;;;23.90;99.90;;;;;;6201995;28;88956;-67
2023/08/29 06:06:43;;;;;;;2.55;2.10;;;23.90;99.90;;;;;;6199262;28;89045;-67
2023/08/29 06:09:45;;;;;;;2.60;2.40;;;23.90;99.90;;;;;;6199711;28;89237;-68
2023/08/29 06:12:47;;;;;;;2.30;2.10;;;23.90;99.90;;;;;;6196595;28;88041;-67
2023/08/29 06:15:50;;;;;;;2.72;2.20;;;23.90;99.90;;;;;;6198674;28;88969;-67
2023/08/29 06:18:52;;;;;;;2.40;2.20;;;23.90;99.90;;;;;;6197768;28;89411;-67
2023/08/29 06:21:54;;;;;;;2.90;2.20;;;23.90;99.90;;;;;;6199530;28;89365;-68
2023/08/29 06:24:59;;;;;;;2.70;2.17;;;23.90;99.90;;;;;;6195582;28;88613;-67
2023/08/29 06:28:01;;;;;;;2.22;2.00;;;23.80;99.90;;;;;;6203898;28;88186;-68
2023/08/29 06:31:08;;;;;;;3.28;2.72;;;23.90;99.90;;;;;;6197204;28;89178;-67
2023/08/29 06:34:10;;;;;;;2.63;2.20;;;23.80;99.90;;;;;;6196859;28;90101;-68
2023/08/29 06:37:13;;;;;;;2.20;2.00;;;23.90;99.90;;;;;;6200317;28;89014;-67
2023/08/29 06:40:15;;;;;;;2.53;2.25;;;23.80;99.90;;;;;;6200667;28;89211;-67
2023/08/29 06:43:18;;;;;;;2.63;2.13;;;23.90;99.90;;;;;;6201538;28;87978;-67
2023/08/29 06:46:22;;;;;;;2.47;2.17;;;23.80;99.90;;;;;;6202248;28;86991;-68
2023/08/29 06:49:24;;;;;;;2.20;2.00;;;23.90;99.90;;;;;;6193131;28;89149;-68
2023/08/29 06:52:27;;;;;;;2.10;1.90;;;23.90;99.90;;;;;;6190174;28;89159;-67
2023/08/29 06:55:29;;;;;;;2.10;1.80;;;23.80;99.90;;;;;;6193440;28;88432;-68
2023/08/29 06:58:31;;;;;;;2.22;2.03;;;23.80;99.90;;;;;;6194986;28;89177;-67
2023/08/29 07:01:34;;;;;;;2.83;2.25;;;23.80;99.90;;;;;;6202638;28;89025;-67
2023/08/29 07:04:36;;;;;;;2.35;2.05;;;23.80;99.90;;;;;;6196601;28;90118;-68
2023/08/29 07:07:40;;;;;;;2.20;2.00;;;23.80;99.90;;;;;;6201385;28;90896;-67
2023/08/29 07:10:42;;;;;;;2.20;2.00;;;23.80;99.90;;;;;;6202295;28;88362;-68
2023/08/29 07:13:44;;;;;;;2.38;2.03;;;23.80;99.90;;;;;;6200919;28;89111;-67
2023/08/29 07:16:47;;;;;;;2.38;2.03;;;23.80;99.90;;;;;;6188758;28;89051;-67
2023/08/29 07:19:49;;;;;;;2.20;2.00;;;23.80;99.90;;;;;;6200955;28;89051;-68
2023/08/29 07:22:51;;;;;;;2.00;1.77;;;23.80;99.90;;;;;;6202474;28;89122;-68
2023/08/29 07:25:53;;;;;;;2.00;1.90;;;23.80;99.90;;;;;;6188700;28;88302;-67
2023/08/29 07:28:55;;;;;;;2.30;2.10;;;23.80;99.90;;;;;;6194649;28;89162;-67
2023/08/29 07:31:59;;;;;;;3.63;1.95;;;23.80;99.90;;;;;;6197684;28;89057;-67
2023/08/29 07:35:02;;;;;;;2.05;1.85;;;23.80;99.90;;;;;;6205357;28;89520;-67
2023/08/29 07:38:04;;;;;;;2.60;2.22;;;23.80;99.90;;;;;;6207316;28;89267;-68
2023/08/29 07:41:06;;;;;;;2.85;1.90;;;23.80;99.90;;;;;;6211220;28;89031;-68
2023/08/29 07:44:08;;;;;;;2.00;1.80;;;23.80;99.90;;;;;;6205051;28;87966;-67
2023/08/29 07:47:12;;;;;;;2.35;2.03;;;23.80;99.90;;;;;;6204999;28;89547;-67
2023/08/29 07:50:14;;;;;;;2.20;2.00;;;23.80;99.90;;;;;;6199866;28;89109;-68
2023/08/29 07:53:16;;;;;;;2.20;2.00;;;23.80;99.90;;;;;;6197790;28;89078;-67
2023/08/29 07:56:18;;;;;;;2.00;1.80;;;23.80;99.90;;;;;;6201512;28;88338;-67
2023/08/29 07:59:20;;;;;;;2.17;1.98;;;23.70;99.90;;;;;;6199420;28;88068;-68
2023/08/29 08:02:23;;;;;;;2.22;2.03;;;23.70;99.90;;;;;;6207505;28;89131;-67
2023/08/29 08:05:25;;;;;;;2.28;2.08;;;23.70;99.90;;;;;;6196027;28;88950;-68
2023/08/29 08:08:27;;;;;;;2.75;2.30;;;23.80;99.90;;;;;;6204513;28;89144;-68
2023/08/29 08:11:29;;;;;;;2.63;2.15;;;23.80;99.90;;;;;;6203269;28;87970;-67
2023/08/29 08:14:41;;;;;;;2.80;2.20;;;23.80;99.90;;;;;;6202360;28;89113;-67
2023/08/29 08:17:45;;;;;;;2.58;1.90;;;23.80;99.90;;;;;;6193604;28;89373;-67
2023/08/29 08:20:47;;;;;;;2.28;1.95;;;23.80;99.90;;;;;;6202516;28;89056;-67
2023/08/29 08:23:49;;;;;;;3.35;1.92;;;23.80;99.90;;;;;;6199112;28;89053;-68
2023/08/29 08:26:51;;;;;;;62.47;47.40;;;23.80;99.90;;;;;;6204294;28;88265;-67
2023/08/29 08:29:53;;;;;;;16.13;7.30;;;23.70;99.90;;;;;;6204414;28;89113;-66
2023/08/29 08:32:57;;;;;;;6.60;4.70;;;23.80;99.90;;;;;;6203423;28;89174;-67
2023/08/29 08:35:59;;;;;;;5.18;3.60;;;23.90;99.90;;;;;;6203411;28;89957;-67
2023/08/29 08:39:01;;;;;;;5.43;3.95;;;24.00;99.90;;;;;;6193323;28;88990;-67
2023/08/29 08:42:04;;;;;;;4.65;2.90;;;24.10;99.90;;;;;;6194440;28;90805;-67
2023/08/29 08:45:08;;;;;;;16.25;8.70;;;24.20;99.90;;;;;;6194999;28;88863;-67
2023/08/29 08:48:12;;;;;;;6.38;3.38;;;24.30;99.90;;;;;;6197301;28;88998;-67
2023/08/29 08:51:18;;;;;;;4.80;3.10;;;24.30;99.90;;;;;;6199055;28;89878;-67
2023/08/29 08:54:20;;;;;;;6.45;3.17;;;24.30;99.90;;;;;;6200034;28;89201;-69
2023/08/29 08:57:22;;;;;;;5.30;2.92;;;24.20;99.90;;;;;;6202839;28;88708;-68
2023/08/29 09:00:25;;;;;;;4.35;2.60;;;24.20;99.90;;;;;;6202763;28;89054;-68
2023/08/29 09:03:28;;;;;;;5.50;2.67;;;24.20;99.90;;;;;;6196480;28;89099;-68
2023/08/29 09:06:31;;;;;;;3.42;2.30;;;24.20;99.90;;;;;;6199009;28;90094;-68
2023/08/29 09:09:33;;;;;;;3.90;2.60;;;24.20;99.90;;;;;;6193910;28;89145;-68
2023/08/29 09:12:35;;;;;;;5.00;2.10;;;24.20;99.90;;;;;;6197042;28;87931;-68
2023/08/29 09:15:39;;;;;;;2.78;1.98;;;24.10;99.90;;;;;;6201317;28;90009;-67
2023/08/29 09:18:45;;;;;;;4.40;1.80;;;24.10;99.90;;;;;;6200244;28;89040;-67
2023/08/29 09:21:47;;;;;;;2.90;1.83;;;24.10;99.90;;;;;;6193324;28;89114;-68
2023/08/29 09:24:50;;;;;;;1.85;1.65;;;24.10;99.90;;;;;;6192891;28;88268;-68
2023/08/29 09:27:52;;;;;;;2.80;1.90;;;24.10;99.90;;;;;;6193662;28;88318;-68
2023/08/29 09:30:55;;;;;;;3.35;1.80;;;24.10;99.90;;;;;;6196368;28;88860;-67
2023/08/29 09:33:58;;;;;;;2.33;1.98;;;24.10;99.90;;;;;;6193535;28;88516;-67
2023/08/29 09:37:03;;;;;;;2.28;1.83;;;24.10;99.90;;;;;;6198368;28;90221;-68
2023/08/29 09:40:07;;;;;;;3.15;1.85;;;24.10;99.90;;;;;;6196710;28;90802;-67
2023/08/29 09:43:09;;;;;;;2.97;1.50;;;24.10;99.90;;;;;;6204497;28;90409;-67
2023/08/29 09:46:11;;;;;;;2.25;1.52;;;24.00;99.90;;;;;;6201437;28;89137;-68
2023/08/29 09:49:14;;;;;;;2.22;1.65;;;24.00;99.90;;;;;;6194982;28;88217;-67
2023/08/29 09:52:18;;;;;;;1.45;1.33;;;24.00;99.90;;;;;;6200796;28;89366;-67
2023/08/29 09:55:21;;;;;;;2.78;1.35;;;24.00;99.90;;;;;;6195714;28;88838;-67
2023/08/29 09:58:27;;;;;;;1.83;1.52;;;24.00;99.90;;;;;;6194097;28;88813;-67
2023/08/29 10:01:29;;;;;;;4.40;2.33;;;24.00;99.90;;;;;;6197970;28;88188;-67
2023/08/29 10:04:35;;;;;;;1.55;1.27;;;23.90;99.90;;;;;;6202204;28;89053;-67
2023/08/29 10:07:42;;;;;;;1.63;1.52;;;24.00;99.90;;;;;;6204080;28;89995;-67
2023/08/29 10:10:45;;;;;;;2.88;1.20;;;24.00;99.90;;;;;;6200964;28;89228;-67
2023/08/29 10:13:49;;;;;;;1.45;1.23;;;23.90;99.90;;;;;;6200174;28;89161;-67
2023/08/29 10:16:52;;;;;;;1.33;1.23;;;23.90;99.90;;;;;;6201345;28;89049;-66
2023/08/29 10:19:58;;;;;;;4.07;2.00;;;23.90;99.90;;;;;;6204214;28;89104;-67
2023/08/29 10:23:03;;;;;;;2.15;1.10;;;23.90;99.90;;;;;;6193560;28;89102;-67
2023/08/29 10:26:06;;;;;;;1.20;1.10;;;23.90;99.90;;;;;;6200891;28;89328;-67
2023/08/29 10:29:08;;;;;;;1.40;1.30;;;23.90;99.90;;;;;;6200036;28;88273;-67
2023/08/29 10:32:10;;;;;;;1.27;1.17;;;23.90;99.90;;;;;;6202619;28;89122;-66
2023/08/29 10:35:18;;;;;;;1.15;1.05;;;23.80;99.90;;;;;;6194773;28;89459;-67
2023/08/29 10:38:20;;;;;;;2.35;1.60;;;23.90;99.90;;;;;;6197378;28;89962;-66
2023/08/29 10:41:22;;;;;;;1.38;1.05;;;23.80;99.90;;;;;;6208354;28;90363;-66
2023/08/29 10:44:35;;;;;;;1.10;1.00;;;23.80;99.90;;;;;;6193521;28;89086;-66
2023/08/29 10:47:47;;;;;;;1.48;1.20;;;23.80;99.90;;;;;;6201752;28;89366;-67
2023/08/29 10:51:12;;;;;;;2.25;1.08;;;23.90;99.90;;;;;;6199146;28;88137;-67
2023/08/29 10:54:14;;;;;;;0.95;0.85;;;23.80;99.90;;;;;;6199633;28;89304;-67
2023/08/29 10:57:29;;;;;;;1.42;1.10;;;23.80;99.90;;;;;;6202573;28;91438;-67
2023/08/29 11:00:52;;;;;;;1.20;1.10;;;23.80;99.90;;;;;;6199478;28;88346;-66
2023/08/29 11:03:55;;;;;;;1.13;1.02;;;23.80;99.90;;;;;;6197185;28;88726;-67
2023/08/29 11:06:58;;;;;;;1.70;1.50;;;23.70;99.90;;;;;;6200997;28;89043;-66
2023/08/29 11:10:17;;;;;;;1.20;1.00;;;23.70;99.90;;;;;;6205304;28;89995;-67
2023/08/29 11:13:19;;;;;;;1.20;1.10;;;23.80;99.90;;;;;;6202062;28;90998;-67
2023/08/29 11:16:21;;;;;;;1.05;1.00;;;23.80;99.90;;;;;;6197354;28;89138;-67
2023/08/29 11:19:23;;;;;;;1.20;1.00;;;23.70;99.90;;;;;;6198501;28;89408;-67
2023/08/29 11:22:29;;;;;;;1.30;1.00;;;23.70;99.90;;;;;;6203941;28;89100;-69
2023/08/29 11:25:32;;;;;;;1.73;1.17;;;23.70;99.90;;;;;;6200287;28;89371;-67
2023/08/29 11:28:34;;;;;;;1.40;1.30;;;23.80;99.90;;;;;;6202964;28;89138;-67
2023/08/29 11:31:40;;;;;;;2.85;1.25;;;23.70;99.90;;;;;;6201121;28;88298;-67
2023/08/29 11:34:42;;;;;;;3.28;1.40;;;23.70;99.90;;;;;;6203281;28;88303;-67
2023/08/29 11:37:45;;;;;;;3.50;1.23;;;23.70;99.90;;;;;;6201905;28;89577;-66
2023/08/29 11:40:48;;;;;;;2.78;1.10;;;23.70;99.90;;;;;;6197916;28;89924;-68
2023/08/29 11:43:50;;;;;;;1.27;1.10;;;23.70;99.90;;;;;;6199342;28;88803;-67
2023/08/29 11:46:52;;;;;;;2.10;1.20;;;23.70;99.90;;;;;;6194983;28;89159;-67
2023/08/29 11:49:55;;;;;;;2.50;1.15;;;23.70;99.90;;;;;;6200580;28;88980;-67
2023/08/29 11:52:59;;;;;;;1.67;1.00;;;23.70;99.90;;;;;;6205510;28;88082;-66
2023/08/29 11:56:02;;;;;;;2.08;1.20;;;23.60;99.90;;;;;;6197192;28;89064;-66
2023/08/29 11:59:05;;;;;;;2.13;1.20;;;23.70;99.90;;;;;;6205058;28;89184;-66
2023/08/29 12:02:08;;;;;;;1.70;1.30;;;23.70;99.90;;;;;;6203258;28;87852;-66
2023/08/29 12:05:12;;;;;;;1.15;1.05;;;23.70;99.90;;;;;;6202337;28;89424;-66
2023/08/29 12:08:16;;;;;;;1.30;1.20;;;23.70;99.90;;;;;;6191224;28;89066;-66
2023/08/29 12:11:18;;;;;;;1.10;1.00;;;23.70;99.90;;;;;;6198136;28;88841;-66
2023/08/29 12:14:20;;;;;;;7.68;2.25;;;23.60;99.90;;;;;;6207208;28;88355;-66
2023/08/29 12:17:23;;;;;;;10.88;3.00;;;23.60;99.90;;;;;;6194346;28;89990;-66
2023/08/29 12:20:31;;;;;;;10.38;3.55;;;23.60;99.90;;;;;;6200347;28;88954;-66
2023/08/29 12:23:34;;;;;;;7.65;2.30;;;23.70;99.90;;;;;;6198781;28;89040;-66
2023/08/29 12:26:36;;;;;;;7.97;2.60;;;23.60;99.90;;;;;;6204313;28;89352;-66
2023/08/29 12:29:38;;;;;;;11.65;3.08;;;23.60;99.90;;;;;;6196806;28;88975;-66
2023/08/29 12:32:42;;;;;;;9.68;3.33;;;23.60;99.90;;;;;;6197829;28;88301;-66
2023/08/29 12:35:44;;;;;;;14.35;3.95;;;23.60;99.90;;;;;;6204878;28;89051;-66
2023/08/29 12:38:47;;;;;;;14.20;3.58;;;23.60;99.90;;;;;;6199757;28;89374;-66
2023/08/29 12:41:49;;;;;;;10.88;3.70;;;23.60;99.90;;;;;;6194911;28;90027;-66
2023/08/29 12:44:51;;;;;;;12.45;3.60;;;23.60;99.90;;;;;;6198254;28;89073;-66
2023/08/29 12:47:54;;;;;;;9.25;3.50;;;23.60;99.90;;;;;;6197616;28;89353;-66
2023/08/29 12:50:56;;;;;;;11.95;3.42;;;23.60;99.90;;;;;;6196286;28;89392;-66
2023/08/29 12:53:59;;;;;;;9.25;2.80;;;23.60;99.90;;;;;;6202130;28;89519;-66
2023/08/29 12:57:01;;;;;;;9.70;3.08;;;23.60;99.90;;;;;;6200520;28;89084;-66
2023/08/29 13:00:06;;;;;;;8.60;3.00;;;23.60;99.90;;;;;;6198587;28;89363;-66
2023/08/29 13:03:09;;;;;;;10.65;3.05;;;23.60;99.90;;;;;;6199359;28;88512;-66
2023/08/29 13:06:11;;;;;;;6.72;2.88;;;23.60;99.90;;;;;;6204318;28;89699;-66
2023/08/29 13:09:15;;;;;;;9.52;2.70;;;23.60;99.90;;;;;;6203733;28;89100;-66
2023/08/29 13:12:17;;;;;;;6.97;2.45;;;23.60;99.90;;;;;;6199986;28;90386;-66
2023/08/29 13:15:19;;;;;;;8.05;2.63;;;23.60;99.90;;;;;;6201301;28;89417;-66
2023/08/29 13:18:22;;;;;;;5.88;2.28;;;23.60;99.90;;;;;;6195724;28;89508;-66
2023/08/29 13:21:24;;;;;;;5.63;2.38;;;23.60;99.90;;;;;;6196111;28;89162;-66
2023/08/29 13:24:28;;;;;;;6.20;2.55;;;23.60;99.90;;;;;;6196216;28;88795;-66
2023/08/29 13:27:30;;;;;;;7.00;2.50;;;23.50;99.90;;;;;;6199997;28;89064;-66
2023/08/29 13:30:32;;;;;;;7.00;2.47;;;23.60;99.90;;;;;;6191396;28;89426;-66
2023/08/29 13:33:35;;;;;;;5.53;2.40;;;23.60;99.90;;;;;;6203402;28;88479;-66
2023/08/29 13:36:37;;;;;;;4.97;2.13;;;23.60;99.90;;;;;;6199126;28;89005;-66
2023/08/29 13:39:43;;;;;;;5.07;2.25;;;23.60;99.90;;;;;;6204647;28;89071;-66
2023/08/29 13:42:46;;;;;;;3.78;1.70;;;23.50;99.90;;;;;;6196434;28;90097;-66
2023/08/29 13:45:48;;;;;;;5.50;2.00;;;23.50;99.90;;;;;;6198681;28;89608;-66
2023/08/29 13:48:51;;;;;;;4.78;2.15;;;23.50;99.90;;;;;;6200492;28;89154;-66
2023/08/29 13:51:53;;;;;;;3.13;1.63;;;23.50;99.90;;;;;;6201225;28;89040;-66
2023/08/29 13:54:56;;;;;;;5.28;1.70;;;23.50;99.90;;;;;;6201540;28;89344;-66
2023/08/29 13:57:58;;;;;;;3.92;1.80;;;23.50;99.90;;;;;;6197648;28;89050;-66
2023/08/29 14:01:02;;;;;;;3.80;1.95;;;23.50;99.90;;;;;;6197024;28;89211;-66
2023/08/29 14:04:05;;;;;;;5.32;1.95;;;23.40;99.90;;;;;;6203340;28;87688;-67
2023/08/29 14:07:08;;;;;;;3.67;1.40;;;23.50;99.90;;;;;;6203727;28;90843;-66
2023/08/29 14:10:12;;;;;;;2.90;1.40;;;23.50;99.90;;;;;;6192389;28;88150;-66
2023/08/29 14:13:16;;;;;;;3.90;1.80;;;23.50;99.90;;;;;;6198833;28;90021;-66
2023/08/29 14:16:19;;;;;;;2.67;1.50;;;23.50;99.90;;;;;;6198594;28;88159;-66
2023/08/29 14:19:22;;;;;;;2.28;1.45;;;23.50;99.90;;;;;;6203750;28;88020;-66
2023/08/29 14:22:27;;;;;;;2.97;1.65;;;23.50;99.90;;;;;;6198335;28;88003;-66
2023/08/29 14:25:31;;;;;;;2.47;1.40;;;23.50;99.90;;;;;;6200873;28;87978;-66
2023/08/29 14:28:33;;;;;;;2.70;1.50;;;23.50;99.90;;;;;;6200709;28;90217;-66
2023/08/29 14:31:36;;;;;;;2.65;1.48;;;23.40;99.90;;;;;;6200426;28;88267;-66
2023/08/29 14:34:39;;;;;;;3.58;1.70;;;23.40;99.90;;;;;;6194438;28;87525;-66
2023/08/29 14:37:42;;;;;;;2.67;1.38;;;23.40;99.90;;;;;;6198175;28;87151;-66
2023/08/29 14:40:47;;;;;;;2.50;1.30;;;23.40;99.90;;;;;;6200021;28;88842;-66
2023/08/29 14:43:50;;;;;;;2.03;1.17;;;23.40;99.90;;;;;;6198483;28;88958;-66
2023/08/29 14:46:54;;;;;;;2.63;1.40;;;23.40;99.90;;;;;;6194568;28;88554;-67
2023/08/29 14:49:58;;;;;;;3.25;1.33;;;23.50;99.90;;;;;;6199206;28;88034;-66
2023/08/29 14:53:02;;;;;;;2.65;1.50;;;23.40;99.90;;;;;;6201280;28;88256;-66
2023/08/29 14:56:07;;;;;;;2.53;1.23;;;23.40;99.90;;;;;;6203780;28;88139;-66
2023/08/29 14:59:09;;;;;;;1.75;1.17;;;23.40;99.90;;;;;;6200945;28;88093;-66
2023/08/29 15:02:13;;;;;;;1.67;1.20;;;23.40;99.90;;;;;;6199004;28;88067;-66
2023/08/29 15:05:17;;;;;;;1.80;1.27;;;23.40;99.90;;;;;;6190688;28;87611;-66
2023/08/29 15:08:20;;;;;;;2.40;1.45;;;23.40;99.90;;;;;;6184286;28;88050;-66
2023/08/29 15:11:26;;;;;;;1.73;1.30;;;23.40;99.90;;;;;;6186435;28;88113;-67
2023/08/29 15:14:29;;;;;;;1.35;1.00;;;23.40;99.90;;;;;;6183652;28;88608;-66
2023/08/29 15:17:33;;;;;;;1.20;1.10;;;23.40;99.90;;;;;;6199590;28;87983;-66
2023/08/29 15:20:38;;;;;;;1.73;1.20;;;23.40;99.90;;;;;;6193784;28;88033;-66
2023/08/29 15:23:42;;;;;;;2.75;1.30;;;23.40;99.90;;;;;;6195722;28;87602;-66
2023/08/29 15:26:47;;;;;;;2.47;1.63;;;23.40;99.90;;;;;;6186793;28;88116;-66
2023/08/29 15:29:50;;;;;;;1.92;1.20;;;23.40;99.90;;;;;;6192039;28;88017;-66
2023/08/29 15:32:54;;;;;;;1.30;0.98;;;23.40;99.90;;;;;;6187800;28;88109;-66
2023/08/29 15:35:58;;;;;;;1.88;1.30;;;23.40;99.90;;;;;;6196788;28;88558;-66
2023/08/29 15:39:02;;;;;;;2.67;1.40;;;23.40;99.90;;;;;;6200738;28;88257;-66
2023/08/29 15:42:08;;;;;;;1.90;1.35;;;23.40;99.90;;;;;;6200337;28;88031;-66
2023/08/29 15:45:12;;;;;;;1.33;1.10;;;23.40;99.90;;;;;;6201046;28;89840;-67
2023/08/29 15:48:17;;;;;;;1.98;1.08;;;23.40;99.90;;;;;;6197733;28;88061;-67
2023/08/29 15:51:20;;;;;;;1.80;1.13;;;23.40;99.90;;;;;;6201464;28;87961;-67